Time;durP1;ratioP1;P1;durP2;ratioP2;P2;SDS_P1;SDS_P2;PMS_P1;PMS_P2;Temp;Humidity;BMP_temperature;BMP_pressure;BME280_temperature;BME280_humidity;BME280_pressure;Samples;Min_cycle;Max_cycle;Signal;HPM_P1;HPM_P2
2022/10/21 13:36:10;;;;;;;46.40;3.80;;;;;;;21.06;28.79;101467.29;104620;1308;544228;-68
2022/10/21 13:38:44;;;;;;;30.40;3.40;;;;;;;20.80;29.28;101471.84;105311;1307;21972;-69
2022/10/21 13:41:21;;;;;;;4.60;1.40;;;;;;;20.61;29.55;101473.77;105272;1313;21974;-69
2022/10/21 13:43:58;;;;;;;11.10;1.90;;;;;;;20.43;29.81;101476.39;105496;1313;22450;-65
2022/10/21 13:46:27;;;;;;;3.50;1.00;;;;;;;20.33;30.03;101478.17;105505;1313;21980;-66
2022/10/21 13:48:58;;;;;;;3.50;0.90;;;;;;;20.20;29.95;101479.67;105285;1313;267380;-66
2022/10/21 13:51:25;;;;;;;6.80;1.50;;;;;;;20.04;29.89;101486.66;105604;1313;21967;-64
2022/10/21 13:53:58;;;;;;;9.10;1.50;;;;;;;19.87;29.88;101489.33;105589;1313;21970;-63
2022/10/21 13:56:31;;;;;;;13.70;2.70;;;;;;;19.71;30.03;101493.23;105570;1312;22005;-64
2022/10/21 13:58:57;;;;;;;3.70;1.20;;;;;;;19.55;30.12;101496.79;105629;1310;21973;-67
2022/10/21 14:01:26;;;;;;;6.20;1.30;;;;;;;19.35;30.24;101497.40;105597;1310;22145;-67
2022/10/21 14:03:52;;;;;;;8.10;1.50;;;;;;;19.17;30.46;101496.17;104837;1306;1003161;-67
2022/10/21 14:06:30;;;;;;;5.90;1.40;;;;;;;19.09;30.53;101497.48;103558;1313;1002492;-66
2022/10/21 14:08:58;;;;;;;9.50;1.90;;;;;;;18.98;30.43;101495.86;105541;1310;21970;-66
2022/10/21 14:11:28;;;;;;;7.40;2.20;;;;;;;18.80;30.39;101498.30;105679;1310;21977;-65
2022/10/21 14:13:56;;;;;;;5.10;1.70;;;;;;;18.59;30.57;101496.40;105652;1302;22166;-66
2022/10/21 14:16:32;;;;;;;3.80;1.70;;;;;;;18.40;30.76;101493.54;105617;1307;21968;-65
2022/10/21 14:18:59;;;;;;;9.00;2.30;;;;;;;18.25;30.80;101485.61;106823;1307;22038;-63
2022/10/21 14:21:25;;;;;;;5.00;1.50;;;;;;;18.05;30.93;101482.92;105745;1301;22188;-69
2022/10/21 14:23:51;;;;;;;2.10;1.20;;;;;;;17.85;31.01;101484.45;105668;1309;21976;-68
2022/10/21 14:26:18;;;;;;;12.90;2.40;;;;;;;17.65;31.05;101492.40;105696;1307;21963;-65
2022/10/21 14:28:44;;;;;;;6.50;1.90;;;;;;;17.53;31.19;101497.84;105608;1301;21978;-65
2022/10/21 14:31:11;;;;;;;6.40;1.70;;;;;;;17.30;31.12;101501.56;105709;1307;21963;-66
2022/10/21 14:33:38;;;;;;;3.80;2.20;;;;;;;17.08;31.30;101499.56;105817;1307;21966;-66
2022/10/21 14:36:17;;;;;;;3.30;1.80;;;;;;;16.82;31.59;101497.60;105706;1307;23100;-67
2022/10/21 14:38:57;;;;;;;9.80;1.60;;;;;;;16.61;31.69;101505.80;105670;1307;23711;-66
2022/10/21 14:41:29;;;;;;;6.50;1.70;;;;;;;16.45;31.80;101505.21;103460;1305;1002691;-67
2022/10/21 14:43:54;;;;;;;6.10;1.90;;;;;;;16.26;31.93;101503.79;105737;1305;21970;-66
2022/10/21 14:46:20;;;;;;;5.10;2.00;;;;;;;16.12;32.07;101501.73;105675;1310;21974;-67
2022/10/21 14:49:02;;;;;;;3.90;1.70;;;;;;;16.01;32.29;101501.74;105731;1307;21968;-66
2022/10/21 14:51:27;;;;;;;9.50;1.80;;;;;;;15.88;32.39;101501.77;105632;1310;21977;-65
2022/10/21 14:54:04;;;;;;;7.80;1.60;;;;;;;15.80;32.44;101502.23;105643;1309;21941;-66
2022/10/21 14:56:38;;;;;;;7.80;2.40;;;;;;;15.79;32.39;101502.25;105648;1308;23613;-68
2022/10/21 14:59:38;;;;;;;10.00;2.20;;;;;;;15.74;32.45;101497.17;105670;1310;23136;-66
2022/10/21 15:02:04;;;;;;;9.20;1.90;;;;;;;15.66;32.53;101490.42;105686;1302;21968;-65
2022/10/21 15:04:40;;;;;;;4.30;1.90;;;;;;;15.52;32.65;101489.91;105688;1304;21979;-66
2022/10/21 15:07:35;;;;;;;4.50;1.80;;;;;;;15.40;32.75;101495.92;105758;1310;21986;-67
2022/10/21 15:10:01;;;;;;;6.10;1.70;;;;;;;15.32;32.81;101499.41;105729;1307;21965;-67
2022/10/21 15:12:37;;;;;;;4.90;1.70;;;;;;;15.26;32.72;101497.90;105597;1310;22063;-65
2022/10/21 15:15:41;;;;;;;5.90;2.00;;;;;;;15.12;32.74;101504.11;106086;1307;21964;-67
2022/10/21 15:18:23;;;;;;;14.40;2.60;;;;;;;14.92;32.97;101505.41;104961;1307;1002517;-67
2022/10/21 15:20:53;;;;;;;27.40;3.40;;;;;;;14.68;33.16;101510.27;105631;1307;21980;-66
2022/10/21 15:23:28;;;;;;;20.50;2.40;;;;;;;14.54;33.12;101514.13;105847;1308;22060;-65
2022/10/21 15:25:59;;;;;;;16.80;2.60;;;;;;;14.39;33.21;101505.80;105602;1307;22814;-67
2022/10/21 15:28:28;;;;;;;13.10;2.80;;;;;;;14.22;33.33;101502.96;106439;1308;21985;-67
2022/10/21 15:30:55;;;;;;;13.40;3.80;;;;;;;14.16;33.31;101502.13;106634;1307;21970;-66
2022/10/21 15:33:21;;;;;;;13.60;3.80;;;;;;;14.04;33.27;101503.48;105581;1310;21983;-66
2022/10/21 15:36:09;;;;;;;20.40;3.40;;;;;;;13.94;33.16;101507.43;105720;1309;21999;-66
2022/10/21 15:38:35;;;;;;;11.80;3.20;;;;;;;13.83;33.23;101510.73;105651;1307;23712;-65
2022/10/21 15:41:01;;;;;;;7.30;3.30;;;;;;;13.71;33.42;101518.02;105647;1307;21966;-65
2022/10/21 15:43:27;;;;;;;12.40;3.50;;;;;;;13.54;33.71;101525.71;105740;1308;21963;-68
2022/10/21 15:45:54;;;;;;;20.50;3.70;;;;;;;13.41;33.68;101533.90;105685;1307;21953;-66
2022/10/21 15:48:22;;;;;;;17.40;3.90;;;;;;;13.30;33.68;101531.46;105605;1309;21972;-66
2022/10/21 15:50:48;;;;;;;17.40;7.30;;;;;;;13.20;33.86;101530.11;105690;1308;21972;-65
2022/10/21 15:53:14;;;;;;;20.20;8.10;;;;;;;13.09;33.96;101527.69;105603;1305;21966;-65
2022/10/21 15:55:41;;;;;;;29.80;12.20;;;;;;;12.98;34.14;101534.79;105738;1309;21969;-66
2022/10/21 15:58:09;;;;;;;72.60;27.30;;;;;;;12.90;34.19;101542.38;104968;1306;1002443;-67
2022/10/21 16:00:35;;;;;;;42.00;17.20;;;;;;;12.80;34.29;101548.05;105588;1305;21959;-67
2022/10/21 16:03:01;;;;;;;76.30;28.60;;;;;;;12.71;34.55;101551.25;104858;1307;1002429;-66
2022/10/21 16:05:27;;;;;;;78.10;21.90;;;;;;;12.59;34.56;101553.21;105610;1309;21976;-66
2022/10/21 16:07:55;;;;;;;26.10;10.60;;;;;;;12.50;34.52;101555.88;105710;1300;21965;-66
2022/10/21 16:10:22;;;;;;;54.80;29.30;;;;;;;12.45;34.61;101553.95;105600;1310;21971;-67
2022/10/21 16:12:53;;;;;;;1027.70;477.40;;;;;;;12.38;34.75;101558.17;105580;1310;21970;-66
2022/10/21 16:15:20;;;;;;;1349.10;561.40;;;;;;;12.34;34.80;101562.75;105656;1307;21968;-67
2022/10/21 16:17:49;;;;;;;1842.50;660.60;;;;;;;12.30;34.84;101564.52;105736;1308;21993;-67
2022/10/21 16:20:23;;;;;;;1474.20;556.60;;;;;;;12.24;34.99;101565.93;105757;1307;21977;-65
2022/10/21 16:22:49;;;;;;;880.20;330.80;;;;;;;12.18;35.39;101563.64;105681;1310;22029;-66
2022/10/21 16:25:16;;;;;;;362.30;95.50;;;;;;;12.08;35.85;101562.94;105801;1299;21985;-66
2022/10/21 16:27:43;;;;;;;92.00;25.60;;;;;;;11.99;36.28;101558.69;105667;1305;21965;-66
2022/10/21 16:30:18;;;;;;;30.30;9.10;;;;;;;11.91;36.80;101558.67;105533;1310;23167;-66
2022/10/21 16:32:44;;;;;;;31.10;10.80;;;;;;;11.83;37.68;101563.94;107718;1307;22346;-68
2022/10/21 16:35:12;;;;;;;131.50;33.10;;;;;;;11.79;38.01;101567.79;107675;1307;21876;-67
2022/10/21 16:37:39;;;;;;;82.90;23.30;;;;;;;11.77;38.25;101569.38;107706;1307;22310;-65
2022/10/21 16:40:18;;;;;;;432.80;232.00;;;;;;;11.74;38.22;101565.33;107748;1307;21874;-65
2022/10/21 16:42:45;;;;;;;154.60;39.20;;;;;;;11.72;38.49;101564.61;107753;1307;22338;-64
2022/10/21 16:45:12;;;;;;;42.90;13.40;;;;;;;11.72;38.20;101565.66;105988;1310;23156;-64
2022/10/21 16:47:38;;;;;;;87.50;20.90;;;;;;;11.68;39.15;101560.04;105644;1307;21961;-63
2022/10/21 16:50:04;;;;;;;162.80;37.50;;;;;;;11.65;38.86;101556.00;105642;1304;21976;-66
2022/10/21 16:52:32;;;;;;;73.00;18.40;;;;;;;11.62;39.07;101554.23;104901;1307;1002540;-67
2022/10/21 16:54:59;;;;;;;181.20;45.10;;;;;;;11.58;39.48;101558.97;105697;1310;21983;-66
2022/10/21 16:57:25;;;;;;;270.10;60.50;;;;;;;11.57;38.78;101563.17;105732;1305;21978;-65
2022/10/21 16:59:52;;;;;;;231.20;50.40;;;;;;;11.55;39.03;101566.34;105598;1307;21989;-67
2022/10/21 17:02:18;;;;;;;295.60;58.90;;;;;;;11.51;39.11;101570.89;105684;1308;21973;-68
2022/10/21 17:04:46;;;;;;;70.60;18.00;;;;;;;11.46;39.38;101570.54;105769;1306;21960;-67
2022/10/21 17:07:13;;;;;;;19.20;5.60;;;;;;;11.42;38.99;101568.23;105554;1307;21997;-66
2022/10/21 17:09:39;;;;;;;11.30;3.40;;;;;;;11.39;39.64;101568.40;105638;1307;21961;-68
2022/10/21 17:12:09;;;;;;;16.30;4.00;;;;;;;11.32;39.49;101569.24;105635;1307;21989;-67
2022/10/21 17:14:35;;;;;;;18.60;4.10;;;;;;;11.29;39.37;101573.10;104949;1307;1002469;-66
2022/10/21 17:17:01;;;;;;;10.60;3.20;;;;;;;11.24;39.34;101574.15;105651;1306;21969;-67
2022/10/21 17:19:27;;;;;;;12.40;4.80;;;;;;;11.22;39.73;101575.02;105631;1307;21965;-66
2022/10/21 17:21:54;;;;;;;16.20;4.70;;;;;;;11.20;39.58;101573.96;105688;1297;22001;-67
2022/10/21 17:24:20;;;;;;;12.30;5.30;;;;;;;11.21;39.81;101572.54;105653;1307;21971;-67
2022/10/21 17:26:45;;;;;;;12.10;5.40;;;;;;;11.20;39.80;101574.48;105655;1305;21978;-67
2022/10/21 17:29:12;;;;;;;8.30;4.90;;;;;;;11.20;39.90;101573.60;105619;1309;21973;-66
2022/10/21 17:31:39;;;;;;;8.80;5.00;;;;;;;11.24;39.94;101571.85;104945;1310;1002301;-68
2022/10/21 17:34:27;;;;;;;10.80;5.30;;;;;;;11.23;39.86;101577.66;105612;1307;23066;-67
2022/10/21 17:36:53;;;;;;;10.80;5.10;;;;;;;11.19;40.65;101585.36;105684;1307;21980;-67
2022/10/21 17:39:19;;;;;;;11.70;5.10;;;;;;;11.17;40.28;101582.71;105562;1310;21993;-67
2022/10/21 17:41:45;;;;;;;9.30;4.90;;;;;;;11.16;40.32;101584.65;107715;1307;21858;-70
2022/10/21 17:44:11;;;;;;;10.70;4.70;;;;;;;11.16;40.28;101582.02;107233;1309;21977;-66
2022/10/21 17:46:37;;;;;;;7.20;4.30;;;;;;;11.15;40.09;101580.07;105711;1310;21960;-68
2022/10/21 17:49:03;;;;;;;10.30;4.70;;;;;;;11.14;40.39;101579.36;105548;1310;21970;-67
2022/10/21 17:51:29;;;;;;;9.70;4.40;;;;;;;11.10;40.78;101578.47;105568;1307;21969;-66
2022/10/21 17:53:55;;;;;;;8.90;4.20;;;;;;;11.04;40.59;101583.70;104977;1304;1002688;-69
2022/10/21 17:56:23;;;;;;;7.30;3.90;;;;;;;11.02;40.62;101586.52;105724;1307;21968;-67
2022/10/21 17:58:52;;;;;;;8.50;3.70;;;;;;;11.03;40.70;101583.88;105771;1310;21981;-66
2022/10/21 18:01:18;;;;;;;9.80;4.70;;;;;;;10.97;40.88;101586.84;105618;1310;21928;-65
2022/10/21 18:03:44;;;;;;;11.80;4.40;;;;;;;10.94;41.09;101585.77;105657;1305;21987;-68
2022/10/21 18:06:13;;;;;;;9.20;3.80;;;;;;;10.90;41.18;101588.37;105580;1310;21984;-65
2022/10/21 18:08:39;;;;;;;9.20;5.40;;;;;;;10.84;41.59;101589.57;105724;1309;21964;-66
2022/10/21 18:11:09;;;;;;;11.50;5.10;;;;;;;10.75;41.91;101586.36;105593;1299;22221;-66
2022/10/21 18:13:36;;;;;;;12.10;5.00;;;;;;;10.67;41.96;101581.92;105735;1310;21977;-66
2022/10/21 18:16:10;;;;;;;11.90;5.50;;;;;;;10.58;42.05;101581.86;105622;1310;21967;-66
2022/10/21 18:18:40;;;;;;;16.70;6.30;;;;;;;10.49;42.51;101585.83;105611;1310;23615;-66
2022/10/21 18:21:08;;;;;;;12.70;5.50;;;;;;;10.39;42.52;101589.08;104978;1305;1003042;-67
2022/10/21 18:23:34;;;;;;;10.00;5.20;;;;;;;10.32;42.40;101597.77;105674;1309;22021;-67
2022/10/21 18:26:05;;;;;;;12.80;5.20;;;;;;;10.30;42.29;101599.70;105611;1310;21969;-68
2022/10/21 18:28:31;;;;;;;9.60;4.70;;;;;;;10.29;41.94;101602.48;105684;1310;22390;-66
2022/10/21 18:30:57;;;;;;;10.80;5.10;;;;;;;10.28;42.45;101605.81;105573;1310;21997;-67
2022/10/21 18:33:23;;;;;;;9.50;5.50;;;;;;;10.25;42.09;101602.45;105615;1306;21983;-66
2022/10/21 18:35:50;;;;;;;10.80;6.50;;;;;;;10.24;42.09;101599.11;105596;1310;21956;-67
2022/10/21 18:38:15;;;;;;;10.30;5.80;;;;;;;10.24;42.42;101601.38;105704;1308;21971;-68
2022/10/21 18:40:41;;;;;;;16.40;7.00;;;;;;;10.20;42.31;101603.11;105642;1310;22057;-67
2022/10/21 18:43:07;;;;;;;12.60;7.40;;;;;;;10.18;42.58;101604.48;105692;1310;21978;-66
2022/10/21 18:45:33;;;;;;;11.30;5.60;;;;;;;10.14;42.54;101599.38;105659;1310;21977;-66
2022/10/21 18:47:59;;;;;;;12.40;5.50;;;;;;;10.10;42.98;101600.58;105724;1310;21984;-66
2022/10/21 18:50:24;;;;;;;13.10;6.20;;;;;;;10.07;43.15;101600.36;106770;1308;21922;-67
2022/10/21 18:52:52;;;;;;;9.00;5.00;;;;;;;10.04;43.36;101598.58;107719;1307;22293;-67
2022/10/21 18:55:18;;;;;;;12.50;5.60;;;;;;;10.04;43.63;101595.42;107696;1307;21846;-67
2022/10/21 18:57:44;;;;;;;10.00;4.90;;;;;;;10.05;43.76;101595.60;107661;1307;21846;-67
2022/10/21 19:00:10;;;;;;;9.60;4.50;;;;;;;10.03;43.79;101590.50;107666;1305;22069;-67
2022/10/21 19:02:36;;;;;;;10.20;4.20;;;;;;;10.04;43.98;101587.01;106649;1309;23755;-67
2022/10/21 19:05:04;;;;;;;7.50;3.80;;;;;;;10.07;43.89;101589.14;106876;1304;21964;-67
2022/10/21 19:07:31;;;;;;;9.80;4.10;;;;;;;10.12;44.12;101592.70;105643;1307;21981;-67
2022/10/21 19:09:57;;;;;;;7.00;3.70;;;;;;;10.15;44.76;101595.35;105649;1307;21981;-66
2022/10/21 19:12:23;;;;;;;6.50;3.60;;;;;;;10.20;44.33;101594.52;105693;1304;21944;-67
2022/10/21 19:14:49;;;;;;;6.70;3.70;;;;;;;10.23;44.60;101603.48;105672;1307;23615;-66
2022/10/21 19:17:15;;;;;;;8.00;3.80;;;;;;;10.26;44.83;101606.48;105667;1310;22156;-66
2022/10/21 19:19:41;;;;;;;7.90;3.00;;;;;;;10.26;44.35;101608.60;105734;1305;21968;-66
2022/10/21 19:22:07;;;;;;;6.60;3.10;;;;;;;10.28;44.65;101608.96;105643;1307;21958;-68
2022/10/21 19:24:33;;;;;;;6.90;3.50;;;;;;;10.29;44.41;101613.20;105680;1307;21972;-68
2022/10/21 19:26:58;;;;;;;7.90;3.50;;;;;;;10.30;44.30;101615.13;105591;1308;21965;-66
2022/10/21 19:29:26;;;;;;;5.80;3.30;;;;;;;10.30;44.42;101610.73;105556;1307;21971;-66
2022/10/21 19:31:52;;;;;;;5.40;3.00;;;;;;;10.29;44.57;101610.56;105506;1298;21969;-68
2022/10/21 19:34:25;;;;;;;8.20;4.00;;;;;;;10.28;44.67;101613.55;105521;1309;21985;-66
2022/10/21 19:36:51;;;;;;;8.50;3.50;;;;;;;10.25;45.04;101612.80;104855;1304;1002650;-66
2022/10/21 19:39:16;;;;;;;6.90;3.40;;;;;;;10.22;44.95;101606.98;105603;1307;21967;-66
2022/10/21 19:41:42;;;;;;;6.20;3.70;;;;;;;10.21;45.06;101603.46;105582;1298;21975;-66
2022/10/21 19:44:09;;;;;;;6.10;3.40;;;;;;;10.24;44.79;101600.34;105538;1303;22149;-66
2022/10/21 19:46:35;;;;;;;8.30;3.70;;;;;;;10.29;44.51;101597.75;105680;1305;21853;-67
2022/10/21 19:49:03;;;;;;;7.80;4.10;;;;;;;10.32;44.29;101595.50;105531;1308;21979;-66
2022/10/21 19:51:30;;;;;;;7.60;4.10;;;;;;;10.36;44.37;101594.66;105678;1298;21980;-66
2022/10/21 19:53:56;;;;;;;6.30;4.10;;;;;;;10.37;44.47;101591.52;105532;1310;21979;-66
2022/10/21 19:56:23;;;;;;;7.20;4.10;;;;;;;10.37;44.58;101581.34;105697;1302;21976;-67
2022/10/21 19:58:49;;;;;;;7.90;3.80;;;;;;;10.37;44.32;101578.00;104832;1309;1002275;-66
2022/10/21 20:01:17;;;;;;;6.40;3.60;;;;;;;10.40;44.33;101578.75;105874;1299;21979;-66
2022/10/21 20:03:44;;;;;;;7.40;4.10;;;;;;;10.42;44.20;101574.38;105681;1298;22016;-66
2022/10/21 20:06:19;;;;;;;7.20;3.90;;;;;;;10.42;44.34;101572.43;105606;1310;22207;-67
2022/10/21 20:08:45;;;;;;;9.00;5.10;;;;;;;10.40;44.45;101570.48;105565;1305;21968;-66
2022/10/21 20:11:17;;;;;;;5.90;3.60;;;;;;;10.37;45.17;101573.27;105570;1308;21973;-66
2022/10/21 20:13:44;;;;;;;6.60;3.10;;;;;;;10.37;44.59;101574.83;105574;1308;22440;-66
2022/10/21 20:16:15;;;;;;;5.30;3.00;;;;;;;10.39;44.59;101578.03;105530;1308;21971;-66
2022/10/21 20:18:40;;;;;;;11.40;4.40;;;;;;;10.44;44.64;101584.91;105609;1298;21966;-66
2022/10/21 20:21:07;;;;;;;8.90;3.40;;;;;;;10.43;45.00;101587.02;105636;1299;21976;-67
2022/10/21 20:23:33;;;;;;;15.30;4.00;;;;;;;10.42;45.12;101593.15;105520;1299;21972;-66
2022/10/21 20:25:59;;;;;;;10.40;3.90;;;;;;;10.41;45.18;101595.42;105681;1299;21971;-66
2022/10/21 20:28:25;;;;;;;8.90;3.70;;;;;;;10.39;44.96;101592.06;105575;1303;21971;-68
2022/10/21 20:31:00;;;;;;;6.10;3.10;;;;;;;10.40;45.35;101592.60;105655;1303;21983;-66
2022/10/21 20:33:27;;;;;;;7.40;2.80;;;;;;;10.37;45.24;101589.58;105653;1307;21969;-66
2022/10/21 20:35:54;;;;;;;6.30;2.90;;;;;;;10.36;44.94;101587.46;105716;1310;21976;-66
2022/10/21 20:38:22;;;;;;;6.80;3.20;;;;;;;10.38;44.88;101586.08;105609;1308;21992;-67
2022/10/21 20:40:57;;;;;;;7.20;3.60;;;;;;;10.39;45.09;101587.68;105680;1309;21967;-66
2022/10/21 20:43:22;;;;;;;11.20;3.50;;;;;;;10.37;44.90;101578.35;105655;1308;22007;-66
2022/10/21 20:45:49;;;;;;;6.40;3.40;;;;;;;10.36;44.88;101575.18;105641;1308;21966;-66
2022/10/21 20:48:14;;;;;;;6.10;3.60;;;;;;;10.38;44.88;101572.92;105626;1305;21970;-66
2022/10/21 20:50:40;;;;;;;6.10;3.90;;;;;;;10.37;44.85;101572.20;105704;1308;21968;-68
2022/10/21 20:53:06;;;;;;;10.10;3.90;;;;;;;10.34;44.80;101573.77;105616;1298;21972;-66
2022/10/21 20:55:33;;;;;;;7.50;3.90;;;;;;;10.29;44.84;101572.14;105619;1309;22000;-66
2022/10/21 20:57:59;;;;;;;7.00;3.90;;;;;;;10.24;44.74;101570.52;105839;1310;21969;-66
2022/10/21 21:00:24;;;;;;;6.30;3.60;;;;;;;10.18;44.66;101570.11;105614;1310;21957;-66
2022/10/21 21:02:51;;;;;;;7.60;4.10;;;;;;;10.15;44.89;101573.25;105683;1307;21989;-66
2022/10/21 21:05:17;;;;;;;8.40;4.00;;;;;;;10.09;44.90;101573.03;105796;1307;21963;-66
2022/10/21 21:07:42;;;;;;;10.40;4.70;;;;;;;10.04;44.96;101564.91;105615;1307;22075;-68
2022/10/21 21:10:08;;;;;;;7.10;3.80;;;;;;;10.01;44.94;101555.23;105614;1307;21963;-66
2022/10/21 21:12:38;;;;;;;10.60;4.00;;;;;;;10.00;44.92;101552.95;105663;1307;21977;-66
2022/10/21 21:15:05;;;;;;;8.70;4.00;;;;;;;9.95;45.05;101556.76;105672;1307;21966;-66
2022/10/21 21:17:34;;;;;;;9.80;3.90;;;;;;;9.90;44.88;101559.17;105631;1310;21968;-66
2022/10/21 21:19:59;;;;;;;7.40;4.30;;;;;;;9.87;44.95;101557.39;105628;1305;21964;-67
2022/10/21 21:22:25;;;;;;;9.80;4.70;;;;;;;9.86;44.97;101552.83;105679;1310;21970;-66
2022/10/21 21:24:51;;;;;;;9.30;4.40;;;;;;;9.84;45.07;101554.39;105691;1307;21968;-66
2022/10/21 21:27:17;;;;;;;8.20;4.10;;;;;;;9.80;45.10;101551.71;105664;1304;21967;-65
2022/10/21 21:29:42;;;;;;;10.70;4.50;;;;;;;9.75;45.37;101551.85;105712;1307;22019;-67
2022/10/21 21:32:08;;;;;;;9.80;4.00;;;;;;;9.70;45.28;101553.90;105696;1307;22009;-66
2022/10/21 21:34:34;;;;;;;8.70;4.00;;;;;;;9.69;45.36;101558.27;105705;1300;21966;-66
2022/10/21 21:37:01;;;;;;;7.70;4.30;;;;;;;9.71;45.24;101552.84;105656;1310;21971;-67
2022/10/21 21:39:27;;;;;;;9.90;4.20;;;;;;;9.72;45.25;101548.64;105788;1310;21977;-66
2022/10/21 21:41:52;;;;;;;7.70;4.30;;;;;;;9.71;45.20;101544.63;105689;1310;21972;-68
2022/10/21 21:44:18;;;;;;;14.50;4.30;;;;;;;9.69;45.39;101543.03;105703;1310;21992;-66
2022/10/21 21:46:44;;;;;;;9.70;5.00;;;;;;;9.65;45.63;101542.82;105747;1307;21943;-66
2022/10/21 21:49:10;;;;;;;10.50;6.90;;;;;;;9.64;45.47;101545.61;105685;1310;21967;-65
2022/10/21 21:51:36;;;;;;;12.10;7.10;;;;;;;9.64;45.40;101550.69;105659;1310;22011;-66
2022/10/21 21:54:02;;;;;;;10.20;5.00;;;;;;;9.65;45.40;101547.55;105594;1310;21962;-66
2022/10/21 21:56:29;;;;;;;9.70;5.30;;;;;;;9.62;45.30;101545.59;105701;1307;21980;-66
2022/10/21 21:58:56;;;;;;;7.90;4.20;;;;;;;9.58;45.40;101547.45;105763;1307;21968;-65
2022/10/21 22:01:24;;;;;;;8.80;4.80;;;;;;;9.54;45.55;101544.10;105700;1307;21969;-66
2022/10/21 22:03:50;;;;;;;6.60;3.80;;;;;;;9.51;45.56;101537.40;105880;1305;22429;-66
2022/10/21 22:06:21;;;;;;;7.40;4.30;;;;;;;9.50;45.67;101534.58;105851;1310;21976;-65
2022/10/21 22:08:47;;;;;;;8.30;4.60;;;;;;;9.47;45.63;101535.61;105809;1307;21969;-66
2022/10/21 22:11:15;;;;;;;8.30;5.20;;;;;;;9.45;45.57;101537.88;105670;1307;21972;-66
2022/10/21 22:13:43;;;;;;;9.20;4.90;;;;;;;9.43;45.49;101539.77;105688;1307;21999;-65
2022/10/21 22:16:09;;;;;;;7.30;4.30;;;;;;;9.40;45.51;101538.00;105629;1310;21974;-66
2022/10/21 22:18:38;;;;;;;9.70;4.80;;;;;;;9.37;45.64;101541.64;105507;1310;24387;-66
2022/10/21 22:21:07;;;;;;;8.50;4.20;;;;;;;9.34;45.64;101541.23;105579;1310;22439;-66
2022/10/21 22:23:33;;;;;;;9.00;4.50;;;;;;;9.32;45.65;101541.57;107513;1310;21940;-67
2022/10/21 22:25:59;;;;;;;10.70;6.60;;;;;;;9.31;45.76;101545.41;107717;1308;21842;-67
2022/10/21 22:28:25;;;;;;;10.70;6.90;;;;;;;9.26;45.77;101546.06;106964;1310;1002279;-68
2022/10/21 22:30:55;;;;;;;11.20;7.30;;;;;;;9.21;45.76;101549.52;107740;1310;21808;-67
2022/10/21 22:33:21;;;;;;;12.90;7.20;;;;;;;9.18;45.94;101549.99;107734;1308;21767;-67
2022/10/21 22:35:47;;;;;;;11.30;7.10;;;;;;;9.18;45.84;101549.46;106197;1310;21964;-66
2022/10/21 22:38:13;;;;;;;12.30;8.00;;;;;;;9.14;45.84;101552.23;105617;1310;21983;-65
2022/10/21 22:40:40;;;;;;;9.60;6.50;;;;;;;9.14;45.82;101549.77;105673;1310;21981;-66
2022/10/21 22:43:06;;;;;;;11.10;5.90;;;;;;;9.13;45.91;101552.20;105609;1310;21946;-66
2022/10/21 22:45:31;;;;;;;9.00;6.00;;;;;;;9.14;45.82;101552.22;105611;1311;21960;-66
2022/10/21 22:47:57;;;;;;;10.90;6.10;;;;;;;9.11;45.93;101550.08;105603;1304;21978;-67
2022/10/21 22:50:26;;;;;;;12.30;6.90;;;;;;;9.06;45.99;101545.30;105629;1304;21978;-65
2022/10/21 22:52:52;;;;;;;9.60;6.60;;;;;;;9.05;46.13;101543.36;105620;1310;21999;-65
2022/10/21 22:55:17;;;;;;;9.10;5.50;;;;;;;9.05;46.11;101544.59;105600;1310;22737;-66
2022/10/21 22:57:43;;;;;;;8.50;5.80;;;;;;;9.05;46.14;101538.27;105614;1310;21981;-66
2022/10/21 23:00:10;;;;;;;9.20;5.20;;;;;;;9.04;46.10;101539.15;105619;1310;21965;-65
2022/10/21 23:02:35;;;;;;;9.90;5.20;;;;;;;9.05;46.37;101533.91;105711;1308;21971;-67
2022/10/21 23:05:01;;;;;;;10.70;7.00;;;;;;;9.04;46.38;101532.14;105671;1307;21968;-66
2022/10/21 23:07:27;;;;;;;11.20;7.30;;;;;;;9.05;46.18;101533.02;105583;1311;21965;-65
2022/10/21 23:09:54;;;;;;;14.00;6.80;;;;;;;9.04;46.25;101533.37;105671;1310;21962;-65
2022/10/21 23:12:20;;;;;;;10.50;7.50;;;;;;;9.01;46.31;101528.77;105675;1307;21961;-66
2022/10/21 23:14:46;;;;;;;12.20;6.60;;;;;;;9.00;46.33;101521.58;105620;1310;21970;-65
2022/10/21 23:17:14;;;;;;;11.80;5.90;;;;;;;8.97;46.34;101518.58;105607;1304;21965;-66
2022/10/21 23:19:43;;;;;;;11.50;5.20;;;;;;;8.95;46.33;101520.64;105616;1311;21960;-65
2022/10/21 23:22:09;;;;;;;8.60;5.20;;;;;;;8.93;46.43;101521.14;105607;1312;21940;-67
2022/10/21 23:24:36;;;;;;;7.70;4.80;;;;;;;8.93;46.59;101519.40;105621;1312;21961;-65
2022/10/21 23:27:02;;;;;;;8.60;4.80;;;;;;;8.90;46.70;101518.13;105640;1306;21975;-66
2022/10/21 23:29:28;;;;;;;8.30;4.70;;;;;;;8.86;46.84;101516.15;105565;1311;21966;-66
2022/10/21 23:31:56;;;;;;;10.70;5.20;;;;;;;8.85;46.85;101515.27;107700;1310;21776;-66
2022/10/21 23:34:22;;;;;;;7.90;4.90;;;;;;;8.85;46.76;101510.71;107005;1309;21974;-66
2022/10/21 23:36:48;;;;;;;6.40;4.00;;;;;;;8.86;46.69;101505.80;107700;1312;21809;-66
2022/10/21 23:39:14;;;;;;;8.40;5.40;;;;;;;8.87;46.77;101507.23;107711;1310;21788;-66
2022/10/21 23:41:39;;;;;;;8.40;5.00;;;;;;;8.88;46.73;101504.10;107727;1310;21856;-66
2022/10/21 23:44:05;;;;;;;8.90;4.60;;;;;;;8.89;46.64;101506.55;105711;1312;22410;-65
2022/10/21 23:46:32;;;;;;;8.20;4.80;;;;;;;8.89;46.66;101503.41;105602;1309;21971;-65
2022/10/21 23:48:57;;;;;;;7.20;5.10;;;;;;;8.90;46.66;101496.07;105661;1307;21992;-65
2022/10/21 23:51:23;;;;;;;9.50;4.00;;;;;;;8.91;46.73;101492.05;105611;1307;21985;-64
2022/10/21 23:53:49;;;;;;;8.20;4.30;;;;;;;8.91;46.71;101489.79;105633;1307;21971;-65
2022/10/21 23:56:15;;;;;;;7.80;4.40;;;;;;;8.91;46.85;101491.02;105613;1311;21970;-65
2022/10/21 23:58:40;;;;;;;7.20;4.30;;;;;;;8.88;46.98;101489.55;105629;1307;21988;-64
